Time;durP1;ratioP1;P1;durP2;ratioP2;P2;SDS_P1;SDS_P2;PMS_P1;PMS_P2;Temp;Humidity;BMP_temperature;BMP_pressure;BME280_temperature;BME280_humidity;BME280_pressure;Samples;Min_cycle;Max_cycle;Signal;HPM_P1;HPM_P2
2023/04/23 00:04:36;;;;;;;5.03;3.93;;;14.00;99.90;;;;;;10421911;28;20315;-71
2023/04/23 00:09:37;;;;;;;4.27;3.77;;;14.00;99.90;;;;;;10415111;28;20228;-70
2023/04/23 00:14:38;;;;;;;4.20;3.77;;;14.00;99.90;;;;;;10427839;28;20242;-69
2023/04/23 00:19:39;;;;;;;5.50;3.80;;;13.90;99.90;;;;;;10419602;28;20224;-70
2023/04/23 00:24:39;;;;;;;5.00;3.90;;;14.00;99.90;;;;;;10435732;28;20219;-69
2023/04/23 00:29:40;;;;;;;4.57;4.10;;;14.00;99.90;;;;;;10428512;28;20235;-71
2023/04/23 00:34:40;;;;;;;4.63;4.23;;;13.90;99.90;;;;;;10435565;28;20277;-71
2023/04/23 00:39:41;;;;;;;5.57;4.13;;;13.90;99.90;;;;;;10425461;28;20233;-70
2023/04/23 00:44:42;;;;;;;5.77;4.67;;;13.90;99.90;;;;;;10434974;28;20218;-69
2023/04/23 00:49:44;;;;;;;4.83;4.43;;;13.90;99.90;;;;;;10429379;28;20259;-70
2023/04/23 00:54:44;;;;;;;5.80;4.43;;;13.80;99.90;;;;;;10434865;28;20240;-70
2023/04/23 00:59:45;;;;;;;6.20;4.60;;;13.80;99.90;;;;;;10428454;28;20797;-69
2023/04/23 01:04:50;;;;;;;8.80;5.00;;;13.70;99.90;;;;;;10435236;28;20689;-70
2023/04/23 01:09:50;;;;;;;5.97;5.33;;;13.60;99.90;;;;;;10424749;28;20227;-70
2023/04/23 01:14:51;;;;;;;6.03;5.00;;;13.60;99.90;;;;;;10426550;28;20738;-70
2023/04/23 01:19:55;;;;;;;6.03;5.40;;;13.60;99.90;;;;;;10418489;28;20233;-69
2023/04/23 01:24:56;;;;;;;6.83;5.90;;;13.60;99.90;;;;;;10424727;28;20303;-69
2023/04/23 01:29:57;;;;;;;7.57;6.10;;;13.50;99.90;;;;;;10434017;28;20340;-70
2023/04/23 01:34:58;;;;;;;7.13;6.07;;;13.50;99.90;;;;;;10425038;28;20227;-70
2023/04/23 01:39:59;;;;;;;7.60;5.40;;;13.50;99.90;;;;;;10427411;28;20224;-69
2023/04/23 01:45:01;;;;;;;7.20;5.20;;;13.50;99.90;;;;;;10431282;28;20266;-69
2023/04/23 01:50:04;;;;;;;5.87;5.23;;;13.50;99.90;;;;;;10426883;28;20228;-71
2023/04/23 01:55:04;;;;;;;6.90;5.17;;;13.40;99.90;;;;;;10431070;28;20265;-69
2023/04/23 02:00:10;;;;;;;8.27;5.50;;;13.40;99.90;;;;;;10419088;28;20351;-70
2023/04/23 02:05:15;;;;;;;7.57;6.00;;;13.40;99.90;;;;;;10425502;28;20181;-70
2023/04/23 02:10:17;;;;;;;6.20;5.60;;;13.40;99.90;;;;;;10417783;28;20559;-69
2023/04/23 02:15:18;;;;;;;7.47;5.63;;;13.40;99.90;;;;;;10427984;28;20654;-70
2023/04/23 02:20:20;;;;;;;6.50;5.40;;;13.30;99.90;;;;;;10427230;28;20234;-70
2023/04/23 02:25:21;;;;;;;6.47;5.67;;;13.30;99.90;;;;;;10432612;28;20554;-70
2023/04/23 02:30:21;;;;;;;6.60;5.57;;;13.30;99.90;;;;;;10425166;28;20194;-70
2023/04/23 02:35:22;;;;;;;6.27;5.67;;;13.30;99.90;;;;;;10428061;28;20190;-70
2023/04/23 02:40:23;;;;;;;6.03;5.43;;;13.30;99.90;;;;;;10417976;28;20354;-70
2023/04/23 02:45:24;;;;;;;6.67;5.47;;;13.30;99.90;;;;;;10424779;28;20220;-70
2023/04/23 02:50:24;;;;;;;6.57;5.27;;;13.30;99.90;;;;;;10425133;28;20231;-71
2023/04/23 02:55:28;;;;;;;5.97;5.03;;;13.30;99.90;;;;;;10425687;28;20216;-70
2023/04/23 03:00:29;;;;;;;6.13;5.43;;;13.30;99.90;;;;;;10427933;28;20568;-70
2023/04/23 03:05:30;;;;;;;6.13;5.23;;;13.20;99.90;;;;;;10430710;28;20221;-70
2023/04/23 03:10:30;;;;;;;6.47;5.87;;;13.20;99.90;;;;;;10421186;28;20278;-69
2023/04/23 03:15:31;;;;;;;6.13;5.53;;;13.20;99.90;;;;;;10427039;28;20216;-69
2023/04/23 03:20:31;;;;;;;8.07;5.43;;;13.20;99.90;;;;;;10420664;28;20236;-70
2023/04/23 03:25:33;;;;;;;6.60;5.90;;;13.20;99.90;;;;;;10424385;28;20226;-69
2023/04/23 03:30:33;;;;;;;7.00;6.13;;;13.20;99.90;;;;;;10426145;28;20255;-70
2023/04/23 03:35:35;;;;;;;7.43;6.00;;;13.20;99.90;;;;;;10428335;28;20227;-69
2023/04/23 03:40:35;;;;;;;7.50;5.93;;;13.20;99.90;;;;;;10423025;28;20236;-70
2023/04/23 03:45:36;;;;;;;6.60;6.00;;;13.20;99.90;;;;;;10427789;28;20232;-71
2023/04/23 03:50:39;;;;;;;8.17;6.50;;;13.20;99.90;;;;;;10421404;28;20236;-71
2023/04/23 03:55:39;;;;;;;7.17;6.47;;;13.10;99.90;;;;;;10427862;28;20591;-71
2023/04/23 04:00:40;;;;;;;7.30;6.60;;;13.10;99.90;;;;;;10431003;28;20241;-70
2023/04/23 04:05:41;;;;;;;7.03;6.40;;;13.10;99.90;;;;;;10429970;28;20223;-70
2023/04/23 04:10:41;;;;;;;7.27;6.67;;;13.10;99.90;;;;;;10433647;28;20232;-70
2023/04/23 04:15:42;;;;;;;7.27;6.57;;;13.00;99.90;;;;;;10425829;28;20224;-70
2023/04/23 04:20:44;;;;;;;8.07;6.53;;;13.00;99.90;;;;;;10435480;28;20243;-68
2023/04/23 04:25:45;;;;;;;7.13;6.43;;;13.00;99.90;;;;;;10426813;28;20237;-73
2023/04/23 04:30:46;;;;;;;7.17;6.37;;;13.00;99.90;;;;;;10431681;28;20216;-74
2023/04/23 04:35:48;;;;;;;7.53;6.83;;;13.00;99.90;;;;;;10431053;28;20303;-73
2023/04/23 04:40:49;;;;;;;7.57;6.23;;;13.00;99.90;;;;;;10425276;28;20248;-73
2023/04/23 04:45:50;;;;;;;6.87;6.17;;;13.00;99.90;;;;;;10435778;28;20577;-73
2023/04/23 04:50:51;;;;;;;7.40;6.63;;;12.90;99.90;;;;;;10426789;28;20692;-74
2023/04/23 04:55:51;;;;;;;9.80;6.30;;;13.00;99.90;;;;;;10435725;28;20227;-74
2023/04/23 05:00:52;;;;;;;6.93;6.23;;;13.00;99.90;;;;;;10419689;28;20232;-74
2023/04/23 05:05:57;;;;;;;6.50;5.80;;;13.00;99.90;;;;;;10436107;28;20702;-74
2023/04/23 05:10:59;;;;;;;6.70;5.93;;;13.00;99.90;;;;;;10422619;28;20224;-74
2023/04/23 05:16:00;;;;;;;5.93;5.33;;;13.10;99.90;;;;;;10428342;28;20221;-74
2023/04/23 05:21:01;;;;;;;6.03;5.17;;;13.20;99.90;;;;;;10434135;28;20232;-74
2023/04/23 05:26:05;;;;;;;5.80;4.97;;;13.50;99.90;;;;;;10424135;28;20248;-74
2023/04/23 05:31:05;;;;;;;5.83;4.47;;;13.70;99.90;;;;;;10433158;28;20246;-74
2023/04/23 05:36:07;;;;;;;6.83;4.60;;;14.00;99.90;;;;;;10428078;28;20219;-74
2023/04/23 05:41:07;;;;;;;4.80;4.23;;;14.00;99.90;;;;;;10432009;28;20232;-74
2023/04/23 05:46:08;;;;;;;4.90;4.10;;;14.20;99.90;;;;;;10434115;28;20695;-75
2023/04/23 05:51:09;;;;;;;4.23;3.90;;;14.40;99.90;;;;;;10433904;28;20230;-74
2023/04/23 05:56:09;;;;;;;5.03;3.97;;;14.80;99.90;;;;;;10429318;28;20301;-74
2023/04/23 06:01:10;;;;;;;4.07;3.70;;;15.20;99.90;;;;;;10433645;28;20235;-74
2023/04/23 06:06:14;;;;;;;4.27;3.67;;;15.40;99.90;;;;;;10430335;28;20311;-74
2023/04/23 06:11:15;;;;;;;6.27;2.90;;;16.10;99.90;;;;;;10428358;28;20252;-73
2023/04/23 06:16:15;;;;;;;3.17;2.10;;;18.90;99.90;;;;;;10411007;28;20240;-74
2023/04/23 06:21:16;;;;;;;3.73;2.33;;;22.10;99.90;;;;;;10421154;28;20389;-75
2023/04/23 06:26:16;;;;;;;2.63;2.10;;;24.70;99.90;;;;;;10432192;28;20243;-72
2023/04/23 06:31:18;;;;;;;2.53;2.30;;;26.40;96.70;;;;;;10413698;28;20226;-74
2023/04/23 06:36:18;;;;;;;2.23;2.07;;;27.50;91.40;;;;;;10428513;28;20288;-74
2023/04/23 06:41:20;;;;;;;2.27;1.80;;;28.50;79.90;;;;;;10423805;28;20236;-74
2023/04/23 06:46:20;;;;;;;3.07;2.03;;;28.70;73.80;;;;;;10422600;28;20335;-74
2023/04/23 06:51:21;;;;;;;4.67;2.40;;;28.70;71.60;;;;;;10426141;28;20319;-74
2023/04/23 06:56:21;;;;;;;1.80;1.70;;;26.20;76.30;;;;;;10427269;28;20231;-75
2023/04/23 07:01:22;;;;;;;3.23;2.03;;;23.30;86.80;;;;;;10426613;28;20239;-73
2023/04/23 07:06:22;;;;;;;2.40;2.03;;;21.30;93.40;;;;;;10432518;28;20279;-73
2023/04/23 07:11:23;;;;;;;2.70;2.30;;;20.20;97.50;;;;;;10424392;28;20315;-74
2023/04/23 07:16:24;;;;;;;2.93;2.63;;;19.90;99.60;;;;;;10418765;28;20224;-74
2023/04/23 07:21:26;;;;;;;4.33;2.50;;;19.70;99.90;;;;;;10427094;28;20270;-75
2023/04/23 07:26:29;;;;;;;2.50;2.30;;;19.40;99.90;;;;;;10424525;28;20224;-74
2023/04/23 07:31:30;;;;;;;4.30;2.40;;;19.80;99.90;;;;;;10427380;28;20224;-74
2023/04/23 07:36:30;;;;;;;4.47;2.10;;;20.60;99.90;;;;;;10429442;28;20226;-73
2023/04/23 07:41:32;;;;;;;2.07;1.87;;;23.60;94.60;;;;;;10423747;28;20235;-74
2023/04/23 07:46:35;;;;;;;2.20;1.77;;;25.40;91.10;;;;;;10427165;28;20223;-74
2023/04/23 07:51:36;;;;;;;2.37;2.17;;;28.30;80.20;;;;;;10423693;28;20297;-74
2023/04/23 07:56:39;;;;;;;2.77;2.30;;;29.90;67.50;;;;;;10429627;28;20325;-74
2023/04/23 08:01:40;;;;;;;2.70;2.50;;;31.10;59.30;;;;;;10430022;28;20337;-73
2023/04/23 08:06:41;;;;;;;2.70;2.40;;;30.20;58.50;;;;;;10426970;28;20231;-73
2023/04/23 08:11:42;;;;;;;2.60;2.40;;;30.50;57.50;;;;;;10421062;28;20209;-74
2023/04/23 08:16:43;;;;;;;5.00;2.30;;;31.50;56.00;;;;;;10425603;28;20365;-74
2023/04/23 08:21:44;;;;;;;2.83;2.07;;;31.50;53.40;;;;;;10422727;28;20702;-73
2023/04/23 08:26:45;;;;;;;3.03;2.23;;;28.90;56.50;;;;;;10423356;28;20218;-74
2023/04/23 08:31:46;;;;;;;2.80;2.40;;;29.40;57.10;;;;;;10426519;28;20229;-74
2023/04/23 08:36:48;;;;;;;3.60;2.10;;;30.80;53.30;;;;;;10422384;28;20228;-74
2023/04/23 08:41:54;;;;;;;2.53;1.90;;;31.90;51.10;;;;;;10421456;28;20607;-74
2023/04/23 08:46:56;;;;;;;2.87;2.10;;;32.00;49.30;;;;;;10418920;28;20315;-74
2023/04/23 08:52:07;;;;;;;1.77;1.67;;;31.40;51.50;;;;;;10426226;28;20232;-74
2023/04/23 08:57:08;;;;;;;2.83;2.20;;;31.50;49.40;;;;;;10430267;28;20697;-74
2023/04/23 09:02:09;;;;;;;4.33;2.07;;;29.30;53.90;;;;;;10429259;28;20273;-75
2023/04/23 09:07:11;;;;;;;1.80;1.70;;;30.50;51.20;;;;;;10429978;28;20258;-74
2023/04/23 09:12:12;;;;;;;2.37;1.67;;;32.80;48.50;;;;;;10422283;28;20224;-75
2023/04/23 09:17:12;;;;;;;2.23;1.80;;;34.90;44.70;;;;;;10437898;28;20641;-75
2023/04/23 09:22:13;;;;;;;2.63;1.90;;;35.70;43.50;;;;;;10441010;28;20234;-75
2023/04/23 09:27:22;;;;;;;3.40;2.20;;;35.60;40.60;;;;;;10435765;28;20220;-75
2023/04/23 09:32:32;;;;;;;2.30;2.10;;;34.70;41.70;;;;;;10431842;28;20289;-76
2023/04/23 09:37:33;;;;;;;3.40;2.10;;;32.40;44.80;;;;;;10429265;28;20233;-75
2023/04/23 09:42:35;;;;;;;3.00;2.40;;;29.40;49.30;;;;;;10426767;28;20278;-75
2023/04/23 09:47:46;;;;;;;3.20;2.50;;;27.20;54.90;;;;;;10434656;28;20221;-73
2023/04/23 09:52:54;;;;;;;3.83;2.07;;;28.50;53.20;;;;;;10433807;28;20272;-74
2023/04/23 09:57:55;;;;;;;4.93;2.40;;;28.60;51.10;;;;;;10433814;28;20219;-75
2023/04/23 10:02:58;;;;;;;4.43;2.30;;;27.70;51.10;;;;;;10417045;28;20263;-75
2023/04/23 10:07:58;;;;;;;2.37;1.97;;;26.50;54.80;;;;;;10419391;28;20238;-75
2023/04/23 10:13:00;;;;;;;4.57;2.20;;;26.70;54.90;;;;;;10433988;28;20282;-74
2023/04/23 10:18:03;;;;;;;1.83;1.50;;;26.80;54.30;;;;;;10431347;28;20230;-74
2023/04/23 10:23:04;;;;;;;3.07;1.53;;;27.50;53.30;;;;;;10426849;28;20251;-74
2023/04/23 10:28:06;;;;;;;3.23;1.70;;;27.70;51.20;;;;;;10431320;28;20239;-73
2023/04/23 10:33:08;;;;;;;2.60;1.83;;;28.90;49.00;;;;;;10425980;28;20213;-73
2023/04/23 10:38:09;;;;;;;3.20;1.60;;;28.20;50.40;;;;;;10422225;28;20282;-73
2023/04/23 10:43:09;;;;;;;2.43;1.80;;;27.70;51.10;;;;;;10425265;28;20243;-73
2023/04/23 10:48:10;;;;;;;4.10;1.73;;;29.10;49.10;;;;;;10421737;28;20223;-73
2023/04/23 10:53:20;;;;;;;2.93;2.20;;;29.00;48.90;;;;;;10415493;28;20644;-73
2023/04/23 10:58:23;;;;;;;3.37;1.90;;;26.60;52.30;;;;;;10407497;28;20208;-73
2023/04/23 11:03:41;;;;;;;2.13;1.90;;;24.40;55.80;;;;;;10427833;28;20224;-74
2023/04/23 11:08:55;;;;;;;1.80;1.43;;;24.10;59.20;;;;;;10430554;28;20215;-74
2023/04/23 11:13:55;;;;;;;2.83;1.97;;;25.10;56.90;;;;;;10411659;28;20301;-75
2023/04/23 11:19:03;;;;;;;3.43;2.40;;;25.60;55.80;;;;;;10427551;28;20218;-74
2023/04/23 11:24:06;;;;;;;5.30;2.37;;;25.30;55.20;;;;;;10423892;28;20220;-74
2023/04/23 11:29:08;;;;;;;2.13;1.93;;;24.20;57.90;;;;;;10427109;28;20227;-75
2023/04/23 11:34:10;;;;;;;2.97;1.83;;;24.20;58.70;;;;;;10423635;28;20250;-74
2023/04/23 11:39:11;;;;;;;3.10;2.17;;;24.80;58.50;;;;;;10428061;28;20238;-74
2023/04/23 11:44:12;;;;;;;5.20;2.30;;;24.70;56.30;;;;;;10424339;28;20220;-74
2023/04/23 11:49:13;;;;;;;2.57;1.90;;;24.00;58.10;;;;;;10425942;28;20220;-73
2023/04/23 11:54:14;;;;;;;2.73;2.20;;;24.00;58.50;;;;;;10425173;28;20276;-74
2023/04/23 11:59:14;;;;;;;1.97;1.83;;;24.30;58.00;;;;;;10421202;28;20261;-74
2023/04/23 12:04:19;;;;;;;4.47;1.90;;;24.50;58.10;;;;;;10424355;28;20223;-74
2023/04/23 12:09:21;;;;;;;5.33;2.20;;;24.20;58.60;;;;;;10422931;28;20223;-74
2023/04/23 12:14:27;;;;;;;2.97;1.67;;;23.90;56.80;;;;;;10421372;28;20220;-73
2023/04/23 12:19:30;;;;;;;3.47;1.90;;;22.60;59.40;;;;;;10431380;28;20255;-73
2023/04/23 12:24:45;;;;;;;2.40;1.40;;;22.70;60.10;;;;;;10431187;28;20220;-73
2023/04/23 12:29:49;;;;;;;1.50;1.40;;;23.10;58.70;;;;;;10426381;28;20274;-76
2023/04/23 12:34:52;;;;;;;1.83;1.60;;;23.10;57.40;;;;;;10428819;28;20217;-73
2023/04/23 12:39:55;;;;;;;2.07;1.67;;;23.00;58.70;;;;;;10436459;28;20229;-73
2023/04/23 12:45:06;;;;;;;1.60;1.23;;;22.80;59.00;;;;;;10410943;28;20221;-74
2023/04/23 12:50:07;;;;;;;2.40;1.30;;;22.70;57.40;;;;;;10427374;28;20224;-73
2023/04/23 12:55:07;;;;;;;2.03;1.23;;;22.60;57.50;;;;;;10430041;28;20185;-74
2023/04/23 13:00:10;;;;;;;2.30;1.57;;;22.40;56.00;;;;;;10425908;28;20216;-73
2023/04/23 13:05:10;;;;;;;1.83;1.30;;;22.10;58.10;;;;;;10434186;28;20183;-74
2023/04/23 13:10:11;;;;;;;1.83;1.37;;;22.00;59.60;;;;;;10416824;28;20260;-74
2023/04/23 13:15:12;;;;;;;1.43;0.93;;;22.00;59.10;;;;;;10433565;28;20210;-74
2023/04/23 13:20:12;;;;;;;2.50;1.83;;;21.90;59.50;;;;;;10427630;28;20265;-73
2023/04/23 13:25:13;;;;;;;2.67;1.30;;;21.90;57.40;;;;;;10429862;28;20839;-73
2023/04/23 13:30:13;;;;;;;2.73;1.30;;;21.80;57.20;;;;;;10430772;28;20630;-73
2023/04/23 13:35:15;;;;;;;1.73;1.30;;;21.70;57.10;;;;;;10429272;28;20188;-74
2023/04/23 13:40:16;;;;;;;2.97;1.30;;;21.50;60.10;;;;;;10433652;28;20584;-74
2023/04/23 13:45:17;;;;;;;1.37;1.03;;;21.50;59.20;;;;;;10429976;28;20267;-75
2023/04/23 13:50:17;;;;;;;2.60;1.30;;;21.50;58.40;;;;;;10429228;28;20199;-74
2023/04/23 13:55:18;;;;;;;2.33;1.30;;;21.70;58.30;;;;;;10427385;28;20189;-75
2023/04/23 14:00:19;;;;;;;2.33;1.57;;;22.00;56.90;;;;;;10428359;28;20216;-74
2023/04/23 14:05:19;;;;;;;2.07;1.23;;;22.10;56.40;;;;;;10429028;28;20207;-74
2023/04/23 14:10:20;;;;;;;3.03;1.27;;;22.20;56.10;;;;;;10427998;28;20195;-74
2023/04/23 14:15:21;;;;;;;1.77;1.00;;;22.50;55.00;;;;;;10429576;28;20271;-74
2023/04/23 14:20:22;;;;;;;1.57;1.47;;;22.80;55.10;;;;;;10415431;28;20216;-74
2023/04/23 14:25:33;;;;;;;1.90;1.10;;;22.90;54.50;;;;;;10428788;28;20188;-75
2023/04/23 14:30:34;;;;;;;1.97;1.07;;;22.70;54.60;;;;;;10432930;28;20213;-74
2023/04/23 14:35:35;;;;;;;2.77;1.30;;;22.70;54.50;;;;;;10427149;28;20750;-75
2023/04/23 14:40:35;;;;;;;1.63;1.10;;;22.50;54.30;;;;;;10423655;28;20729;-75
2023/04/23 14:45:36;;;;;;;1.90;1.13;;;22.40;55.00;;;;;;10431383;28;20220;-74
2023/04/23 14:50:36;;;;;;;2.60;1.00;;;22.40;54.60;;;;;;10421356;28;20222;-74
2023/04/23 14:55:38;;;;;;;1.40;1.00;;;22.50;54.10;;;;;;10430233;28;20225;-74
2023/04/23 15:00:39;;;;;;;1.90;0.90;;;22.40;54.30;;;;;;10417260;28;20354;-75
2023/04/23 15:05:41;;;;;;;3.70;1.37;;;22.50;54.60;;;;;;10428187;28;20870;-73
2023/04/23 15:10:42;;;;;;;1.23;0.90;;;22.40;54.80;;;;;;10409790;28;20687;-73
2023/04/23 15:15:49;;;;;;;1.17;1.00;;;22.30;54.80;;;;;;10422959;28;20270;-75
2023/04/23 15:20:49;;;;;;;2.67;0.93;;;22.10;55.70;;;;;;10430835;28;20231;-74
2023/04/23 15:25:51;;;;;;;1.43;1.10;;;21.80;55.60;;;;;;10422839;28;20212;-74
2023/04/23 15:30:53;;;;;;;1.93;1.17;;;21.50;55.90;;;;;;10437843;28;20802;-73
2023/04/23 15:35:55;;;;;;;1.53;1.00;;;21.40;57.40;;;;;;10414654;28;20316;-74
2023/04/23 15:40:55;;;;;;;1.00;0.90;;;21.40;56.90;;;;;;10430358;28;20224;-74
2023/04/23 15:45:57;;;;;;;2.50;1.10;;;21.50;57.40;;;;;;10422178;28;20302;-74
2023/04/23 15:50:58;;;;;;;2.07;1.10;;;21.60;58.10;;;;;;10430092;28;20683;-75
2023/04/23 15:55:58;;;;;;;1.07;0.90;;;21.50;58.00;;;;;;10430149;28;20219;-74
2023/04/23 16:01:00;;;;;;;1.33;0.73;;;21.20;58.70;;;;;;10436756;28;20228;-74
2023/04/23 16:06:01;;;;;;;1.53;1.03;;;20.80;59.00;;;;;;10430425;28;20247;-74
2023/04/23 16:11:02;;;;;;;1.40;1.00;;;20.60;60.90;;;;;;10438144;28;20243;-75
2023/04/23 16:16:03;;;;;;;4.03;0.97;;;20.30;62.50;;;;;;10420542;28;20205;-74
2023/04/23 16:21:05;;;;;;;3.47;1.23;;;19.90;71.60;;;;;;10435856;28;20228;-74
2023/04/23 16:26:07;;;;;;;1.63;1.10;;;19.10;83.80;;;;;;10429371;28;20248;-74
2023/04/23 16:31:08;;;;;;;3.63;1.33;;;18.10;94.80;;;;;;10432294;28;20261;-74
2023/04/23 16:36:11;;;;;;;1.40;1.30;;;17.30;97.00;;;;;;10430797;28;20269;-74
2023/04/23 16:41:14;;;;;;;1.40;1.30;;;17.00;99.90;;;;;;10432624;28;20231;-74
2023/04/23 16:46:15;;;;;;;1.47;1.30;;;16.90;99.90;;;;;;10431550;28;20685;-74
2023/04/23 16:51:15;;;;;;;2.63;1.40;;;16.70;99.90;;;;;;10428049;28;20538;-74
2023/04/23 16:56:16;;;;;;;4.27;1.50;;;16.80;99.90;;;;;;10408940;28;20630;-74
2023/04/23 17:01:17;;;;;;;1.67;1.20;;;16.90;99.90;;;;;;10421397;28;20583;-73
2023/04/23 17:06:25;;;;;;;2.20;1.10;;;16.80;99.90;;;;;;10430681;28;20241;-73
2023/04/23 17:11:27;;;;;;;1.10;1.00;;;17.00;99.90;;;;;;10419837;28;20225;-73
2023/04/23 17:16:27;;;;;;;3.57;2.27;;;17.00;99.90;;;;;;10425854;28;20234;-73
2023/04/23 17:21:28;;;;;;;1.70;1.30;;;16.90;99.90;;;;;;10426479;28;20235;-72
2023/04/23 17:26:32;;;;;;;2.07;1.20;;;16.80;99.90;;;;;;10428649;28;20772;-73
2023/04/23 17:31:33;;;;;;;3.40;1.50;;;16.70;99.90;;;;;;10426710;28;20219;-70
2023/04/23 17:36:33;;;;;;;2.37;1.27;;;16.60;99.90;;;;;;10422599;28;20218;-73
2023/04/23 17:41:34;;;;;;;1.77;1.23;;;16.50;99.90;;;;;;10421370;28;20231;-74
2023/04/23 17:46:35;;;;;;;1.63;1.40;;;16.40;99.90;;;;;;10417498;28;20224;-70
2023/04/23 17:51:35;;;;;;;3.70;1.50;;;16.20;99.90;;;;;;10416899;28;20758;-72
2023/04/23 17:56:36;;;;;;;4.00;1.57;;;16.10;99.90;;;;;;10417019;28;20262;-72
2023/04/23 18:01:37;;;;;;;3.43;1.70;;;16.00;99.90;;;;;;10425866;28;20245;-71
2023/04/23 18:06:37;;;;;;;2.80;1.73;;;16.00;99.90;;;;;;10426808;28;20226;-72
2023/04/23 18:11:38;;;;;;;2.07;1.20;;;15.90;99.90;;;;;;10425440;28;20301;-72
2023/04/23 18:16:39;;;;;;;2.13;1.30;;;15.80;99.90;;;;;;10420977;28;20231;-72
2023/04/23 18:21:39;;;;;;;1.70;1.50;;;15.60;99.90;;;;;;10426942;28;20246;-72
2023/04/23 18:26:40;;;;;;;6.10;1.50;;;15.50;99.90;;;;;;10402098;28;20217;-72
2023/04/23 18:31:41;;;;;;;4.33;1.50;;;15.30;99.90;;;;;;10413583;28;20221;-72
2023/04/23 18:36:43;;;;;;;1.77;1.23;;;15.10;99.90;;;;;;10409727;28;20223;-71
2023/04/23 18:41:44;;;;;;;1.67;1.37;;;15.00;99.90;;;;;;10430682;28;20231;-71
2023/04/23 18:46:45;;;;;;;3.00;1.40;;;14.90;99.90;;;;;;10420663;28;20222;-71
2023/04/23 18:51:50;;;;;;;2.10;1.73;;;14.80;99.90;;;;;;10420774;28;20222;-72
2023/04/23 18:56:54;;;;;;;1.60;1.50;;;14.80;99.90;;;;;;10422263;28;20699;-73
2023/04/23 19:01:55;;;;;;;2.37;1.73;;;14.70;99.90;;;;;;10402915;28;20649;-74
2023/04/23 19:06:56;;;;;;;3.27;1.53;;;14.60;99.90;;;;;;10413180;28;20225;-73
2023/04/23 19:11:56;;;;;;;1.37;1.23;;;14.50;99.90;;;;;;10431153;28;20577;-74
2023/04/23 19:16:57;;;;;;;3.80;1.60;;;14.50;99.90;;;;;;10416485;28;20224;-74
2023/04/23 19:21:59;;;;;;;5.27;1.43;;;14.50;99.90;;;;;;10409644;28;20231;-72
2023/04/23 19:27:00;;;;;;;1.97;1.17;;;14.50;99.90;;;;;;10422962;28;20220;-71
2023/04/23 19:32:01;;;;;;;1.90;1.30;;;14.40;99.90;;;;;;10424624;28;20227;-72
2023/04/23 19:37:02;;;;;;;1.83;1.53;;;14.30;99.90;;;;;;10429985;28;20219;-71
2023/04/23 19:42:03;;;;;;;2.43;1.60;;;14.20;99.90;;;;;;10412575;28;20306;-73
2023/04/23 19:47:04;;;;;;;3.77;1.50;;;14.10;99.90;;;;;;10434473;28;20312;-73
2023/04/23 19:52:16;;;;;;;1.30;1.20;;;14.10;99.90;;;;;;10428173;28;20314;-75
2023/04/23 19:57:18;;;;;;;2.87;1.43;;;14.00;99.90;;;;;;10416012;28;20281;-74
2023/04/23 20:02:19;;;;;;;2.20;1.80;;;14.00;99.90;;;;;;10432710;28;20232;-74
2023/04/23 20:07:22;;;;;;;3.17;1.87;;;13.90;99.90;;;;;;10419364;28;20223;-73
2023/04/23 20:12:23;;;;;;;2.83;1.60;;;14.00;99.90;;;;;;10406595;28;20191;-74
2023/04/23 20:17:28;;;;;;;2.30;1.60;;;13.90;99.90;;;;;;10419693;28;20212;-74
2023/04/23 20:22:29;;;;;;;2.60;1.50;;;13.80;99.90;;;;;;10419743;28;20916;-74
2023/04/23 20:27:30;;;;;;;1.60;1.50;;;13.80;99.90;;;;;;10422239;28;20225;-74
2023/04/23 20:32:31;;;;;;;3.53;1.43;;;13.80;99.90;;;;;;10418076;28;20228;-75
2023/04/23 20:37:31;;;;;;;1.90;1.33;;;13.80;99.90;;;;;;10423255;28;20423;-75
2023/04/23 20:42:33;;;;;;;2.10;1.30;;;13.80;99.90;;;;;;10433613;28;20570;-72
2023/04/23 20:47:33;;;;;;;2.13;1.37;;;13.80;99.90;;;;;;10423951;28;20286;-73
2023/04/23 20:52:35;;;;;;;3.70;1.70;;;13.90;99.90;;;;;;10432943;28;20254;-75
2023/04/23 20:57:35;;;;;;;2.67;1.60;;;13.80;99.90;;;;;;10425474;28;20238;-73
2023/04/23 21:02:37;;;;;;;4.63;1.30;;;13.80;99.90;;;;;;10431920;28;20241;-72
2023/04/23 21:07:38;;;;;;;3.00;1.20;;;13.80;99.90;;;;;;10419925;28;20290;-73
2023/04/23 21:12:41;;;;;;;2.67;1.47;;;13.80;99.90;;;;;;10424151;28;20298;-70
2023/04/23 21:17:42;;;;;;;1.90;0.87;;;13.70;99.90;;;;;;10433139;28;20230;-72
2023/04/23 21:22:42;;;;;;;1.13;1.03;;;13.70;99.90;;;;;;10429250;28;20232;-72
2023/04/23 21:27:43;;;;;;;1.83;1.30;;;13.70;99.90;;;;;;10432093;28;20224;-72
2023/04/23 21:32:43;;;;;;;1.73;1.30;;;13.60;99.90;;;;;;10428531;28;20281;-72
2023/04/23 21:37:44;;;;;;;3.10;1.60;;;13.60;99.90;;;;;;10433957;28;20227;-73
2023/04/23 21:42:46;;;;;;;1.87;1.53;;;13.60;99.90;;;;;;10428168;28;20315;-73
2023/04/23 21:47:47;;;;;;;4.30;1.73;;;13.60;99.90;;;;;;10433196;28;20728;-72
2023/04/23 21:52:50;;;;;;;3.13;1.97;;;13.70;99.90;;;;;;10434002;28;20307;-73
2023/04/23 21:57:52;;;;;;;3.40;1.70;;;13.70;99.90;;;;;;10434660;28;20310;-73
2023/04/23 22:02:56;;;;;;;1.43;1.33;;;13.70;99.90;;;;;;10424438;28;20226;-72
2023/04/23 22:07:56;;;;;;;2.10;1.40;;;13.60;99.90;;;;;;10420076;28;20779;-72
2023/04/23 22:12:58;;;;;;;3.00;1.30;;;13.70;99.90;;;;;;10424679;28;20213;-71
2023/04/23 22:17:59;;;;;;;2.37;1.20;;;13.70;99.90;;;;;;10423112;28;20220;-71
2023/04/23 22:23:00;;;;;;;1.50;1.40;;;13.70;99.90;;;;;;10421706;28;20285;-72
2023/04/23 22:28:03;;;;;;;1.10;1.00;;;13.70;99.90;;;;;;10430619;28;20327;-73
2023/04/23 22:33:04;;;;;;;3.63;1.10;;;13.70;99.90;;;;;;10420832;28;20688;-75
2023/04/23 22:38:05;;;;;;;1.80;1.13;;;13.70;99.90;;;;;;10429922;28;20223;-74
2023/04/23 22:43:05;;;;;;;2.27;1.10;;;13.60;99.90;;;;;;10425670;28;20265;-72
2023/04/23 22:48:06;;;;;;;3.30;1.33;;;13.30;99.90;;;;;;10423398;28;20271;-72
2023/04/23 22:53:09;;;;;;;1.50;1.40;;;13.20;99.90;;;;;;10423802;28;20583;-73
2023/04/23 22:58:10;;;;;;;1.50;1.10;;;13.00;99.90;;;;;;10424745;28;20230;-73
2023/04/23 23:03:11;;;;;;;1.60;1.10;;;12.90;99.90;;;;;;10428154;28;20575;-73
2023/04/23 23:08:12;;;;;;;2.00;1.27;;;12.80;99.90;;;;;;10421575;28;20865;-72
2023/04/23 23:13:12;;;;;;;2.70;1.30;;;12.70;99.90;;;;;;10423063;28;20216;-72
2023/04/23 23:18:13;;;;;;;1.57;1.47;;;12.70;99.90;;;;;;10425241;28;20229;-72
2023/04/23 23:23:13;;;;;;;2.80;1.30;;;12.60;99.90;;;;;;10430833;28;20239;-72
2023/04/23 23:28:14;;;;;;;3.57;1.60;;;12.50;99.90;;;;;;10428491;28;20228;-73
2023/04/23 23:33:15;;;;;;;3.27;1.40;;;12.40;99.90;;;;;;10425114;28;20262;-71
2023/04/23 23:38:16;;;;;;;2.13;1.33;;;12.40;99.90;;;;;;10427337;28;20233;-72
2023/04/23 23:43:16;;;;;;;3.17;1.60;;;12.40;99.90;;;;;;10425796;28;20235;-72
2023/04/23 23:48:17;;;;;;;2.53;1.60;;;12.40;99.90;;;;;;10425994;28;20227;-72
2023/04/23 23:53:18;;;;;;;2.50;1.30;;;12.50;99.90;;;;;;10425473;28;20280;-72
2023/04/23 23:58:19;;;;;;;3.23;0.83;;;12.50;99.90;;;;;;10427575;28;20224;-73
